Time;durP1;ratioP1;P1;durP2;ratioP2;P2;SDS_P1;SDS_P2;PMS_P1;PMS_P2;Temp;Humidity;BMP_temperature;BMP_pressure;BME280_temperature;BME280_humidity;BME280_pressure;Samples;Min_cycle;Max_cycle;Signal;HPM_P1;HPM_P2
2023/03/03 00:01:37;;;;;;;;;;;;;;;1.42;100.00;96790.00;5003400;28;19918;-70
2023/03/03 00:04:03;;;;;;;;;;;;;;;1.32;100.00;96785.66;4998814;28;19964;-70
2023/03/03 00:06:29;;;;;;;;;;;;;;;1.31;100.00;96789.44;5010093;28;19917;-68
2023/03/03 00:08:54;;;;;;;;;;;;;;;1.34;100.00;96783.44;5025938;28;19921;-71
2023/03/03 00:11:19;;;;;;;;;;;;;;;1.35;100.00;96785.00;5019645;28;19921;-71
2023/03/03 00:13:46;;;;;;;;;;;;;;;1.30;100.00;96783.25;5023718;28;19925;-72
2023/03/03 00:16:14;;;;;;;;;;;;;;;1.33;100.00;96782.66;5017491;28;19991;-72
2023/03/03 00:18:44;;;;;;;;;;;;;;;1.39;100.00;96775.22;5028645;28;19917;-72
2023/03/03 00:21:29;;;;;;;;;;;;;;;1.28;100.00;96773.88;5035340;28;19984;-72
2023/03/03 00:24:01;;;;;;;;;;;;;;;1.33;100.00;96784.53;5031459;28;20074;-71
2023/03/03 00:26:33;;;;;;;;;;;;;;;1.41;100.00;96783.03;5020215;28;19917;-70
2023/03/03 00:29:00;;;;;;;;;;;;;;;1.11;100.00;96788.78;5027440;28;19917;-72
2023/03/03 00:31:33;;;;;;;;;;;;;;;0.50;100.00;96784.63;5022246;28;19925;-70
2023/03/03 00:34:01;;;;;;;;;;;;;;;0.46;100.00;96781.75;5027152;28;19962;-72
2023/03/03 00:36:33;;;;;;;;;;;;;;;0.70;100.00;96791.53;5020784;28;19944;-71
2023/03/03 00:39:19;;;;;;;;;;;;;;;0.93;100.00;96787.81;5026219;28;19917;-72
2023/03/03 00:41:44;;;;;;;;;;;;;;;1.17;100.00;96788.66;5021075;28;19917;-72
2023/03/03 00:44:28;;;;;;;;;;;;;;;1.22;100.00;96792.06;5021027;28;20370;-70
2023/03/03 00:46:55;;;;;;;;;;;;;;;1.38;100.00;96802.53;5015952;28;19953;-70
2023/03/03 00:49:23;;;;;;;;;;;;;;;1.30;100.00;96796.75;5002166;28;19922;-71
2023/03/03 00:51:49;;;;;;;;;;;;;;;1.32;100.00;96796.44;4990072;28;19918;-71
2023/03/03 00:54:14;;;;;;;;;;;;;;;1.32;100.00;96794.53;5002551;28;19939;-71
2023/03/03 00:56:39;;;;;;;;;;;;;;;1.23;100.00;96793.66;5005641;28;19922;-70
2023/03/03 00:59:06;;;;;;;;;;;;;;;1.21;100.00;96789.69;5001572;28;19917;-71
2023/03/03 01:01:31;;;;;;;;;;;;;;;1.21;100.00;96792.38;5003602;28;19925;-72
2023/03/03 01:03:57;;;;;;;;;;;;;;;0.81;100.00;96794.81;5004697;28;19930;-70
2023/03/03 01:06:22;;;;;;;;;;;;;;;0.32;100.00;96789.81;4999874;28;20053;-70
2023/03/03 01:08:47;;;;;;;;;;;;;;;0.40;100.00;96787.53;5024280;28;19921;-71
2023/03/03 01:11:15;;;;;;;;;;;;;;;0.70;100.00;96786.13;5021654;28;19921;-71
2023/03/03 01:13:41;;;;;;;;;;;;;;;0.76;100.00;96782.25;5025288;28;19963;-71
2023/03/03 01:16:07;;;;;;;;;;;;;;;0.76;100.00;96785.75;5019663;28;19925;-71
2023/03/03 01:18:33;;;;;;;;;;;;;;;0.65;100.00;96783.53;5008620;28;19917;-70
2023/03/03 01:20:59;;;;;;;;;;;;;;;0.55;100.00;96782.63;5025798;28;19927;-71
2023/03/03 01:23:24;;;;;;;;;;;;;;;0.76;100.00;96779.56;5021025;28;20019;-71
2023/03/03 01:25:49;;;;;;;;;;;;;;;0.99;100.00;96780.44;5024946;28;19918;-70
2023/03/03 01:28:14;;;;;;;;;;;;;;;1.05;100.00;96778.41;5020333;28;19916;-71
2023/03/03 01:30:40;;;;;;;;;;;;;;;0.71;100.00;96777.75;5024867;28;19917;-72
2023/03/03 01:33:05;;;;;;;;;;;;;;;0.57;100.00;96777.75;5020223;28;19991;-71
2023/03/03 01:35:30;;;;;;;;;;;;;;;0.51;100.00;96768.19;5025695;28;19917;-71
2023/03/03 01:37:56;;;;;;;;;;;;;;;0.59;100.00;96774.75;5024568;28;19925;-71
2023/03/03 01:40:24;;;;;;;;;;;;;;;0.90;100.00;96774.13;5019718;28;20138;-71
2023/03/03 01:42:51;;;;;;;;;;;;;;;1.02;100.00;96776.31;5024362;28;20058;-71
2023/03/03 01:45:18;;;;;;;;;;;;;;;1.13;100.00;96775.00;5018126;28;19921;-71
2023/03/03 01:47:45;;;;;;;;;;;;;;;1.28;100.00;96780.06;5014055;28;19917;-70
2023/03/03 01:50:12;;;;;;;;;;;;;;;1.28;100.00;96774.66;5001631;28;19918;-69
2023/03/03 01:52:43;;;;;;;;;;;;;;;1.25;100.00;96767.16;5004403;28;20000;-72
2023/03/03 01:55:19;;;;;;;;;;;;;;;1.21;100.00;96771.59;5000205;28;19918;-70
2023/03/03 01:57:48;;;;;;;;;;;;;;;1.16;100.00;96766.28;5007231;28;19924;-71
2023/03/03 02:00:13;;;;;;;;;;;;;;;1.16;100.00;96760.13;5008107;28;19921;-73
2023/03/03 02:02:40;;;;;;;;;;;;;;;1.14;100.00;96761.19;5015534;28;19941;-71
2023/03/03 02:05:06;;;;;;;;;;;;;;;1.13;100.00;96764.19;5005576;28;20150;-70
2023/03/03 02:07:31;;;;;;;;;;;;;;;1.15;100.00;96759.28;5008185;28;20008;-71
2023/03/03 02:10:05;;;;;;;;;;;;;;;1.15;100.00;96751.19;5006202;28;20538;-70
2023/03/03 02:12:32;;;;;;;;;;;;;;;1.09;100.00;96755.13;5004101;28;20391;-72
2023/03/03 02:14:58;;;;;;;;;;;;;;;1.06;100.00;96756.53;5003016;28;20255;-69
2023/03/03 02:17:24;;;;;;;;;;;;;;;1.12;100.00;96758.00;4998753;28;20203;-70
2023/03/03 02:19:53;;;;;;;;;;;;;;;1.14;100.00;96768.50;5007835;28;20323;-71
2023/03/03 02:22:22;;;;;;;;;;;;;;;1.12;100.00;96765.31;5006075;28;20309;-71
2023/03/03 02:24:52;;;;;;;;;;;;;;;1.13;100.00;96764.19;5009998;28;19948;-72
2023/03/03 02:27:17;;;;;;;;;;;;;;;0.87;100.00;96772.06;5001177;28;20375;-71
2023/03/03 02:29:43;;;;;;;;;;;;;;;0.55;100.00;96763.00;5006253;28;19924;-72
2023/03/03 02:32:08;;;;;;;;;;;;;;;0.68;100.00;96769.47;4999003;28;19918;-71
2023/03/03 02:34:47;;;;;;;;;;;;;;;0.93;100.00;96768.13;5002614;28;19917;-69
2023/03/03 02:37:12;;;;;;;;;;;;;;;0.98;100.00;96768.03;4999448;28;20075;-71
2023/03/03 02:39:37;;;;;;;;;;;;;;;1.02;100.00;96769.03;5003613;28;20016;-70
2023/03/03 02:42:11;;;;;;;;;;;;;;;1.02;100.00;96763.63;5001521;28;20378;-71
2023/03/03 02:44:37;;;;;;;;;;;;;;;0.95;100.00;96765.94;5002976;28;19933;-70
2023/03/03 02:47:02;;;;;;;;;;;;;;;0.93;100.00;96773.53;5006461;28;20468;-72
2023/03/03 02:49:30;;;;;;;;;;;;;;;0.92;100.00;96766.56;5019875;28;19926;-70
2023/03/03 02:51:56;;;;;;;;;;;;;;;0.99;100.00;96764.25;5023604;28;19917;-70
2023/03/03 02:54:23;;;;;;;;;;;;;;;0.96;100.00;96759.44;5020538;28;20297;-70
2023/03/03 02:56:48;;;;;;;;;;;;;;;1.01;100.00;96755.84;5005377;28;19928;-70
2023/03/03 02:59:14;;;;;;;;;;;;;;;1.08;100.00;96748.94;4999377;28;20008;-71
2023/03/03 03:01:39;;;;;;;;;;;;;;;1.05;100.00;96751.44;5003839;28;19917;-69
2023/03/03 03:04:07;;;;;;;;;;;;;;;1.03;100.00;96756.34;4989807;28;20598;-72
2023/03/03 03:06:32;;;;;;;;;;;;;;;1.05;100.00;96749.53;5002534;28;19940;-71
2023/03/03 03:08:58;;;;;;;;;;;;;;;1.05;100.00;96746.84;5021308;28;19921;-69
2023/03/03 03:11:24;;;;;;;;;;;;;;;1.05;100.00;96746.84;5019382;28;20275;-72
2023/03/03 03:13:50;;;;;;;;;;;;;;;1.06;100.00;96748.44;5023066;28;20011;-70
2023/03/03 03:16:16;;;;;;;;;;;;;;;1.16;100.00;96742.03;5018344;28;19921;-72
2023/03/03 03:18:41;;;;;;;;;;;;;;;1.20;100.00;96748.41;5023932;28;19963;-70
2023/03/03 03:21:07;;;;;;;;;;;;;;;1.12;100.00;96746.44;5016814;28;19925;-72
2023/03/03 03:23:33;;;;;;;;;;;;;;;1.09;100.00;96744.34;5023478;28;19952;-70
2023/03/03 03:25:58;;;;;;;;;;;;;;;1.11;100.00;96747.53;5020564;28;19968;-70
2023/03/03 03:28:23;;;;;;;;;;;;;;;1.11;100.00;96742.91;5017928;28;20455;-72
2023/03/03 03:30:50;;;;;;;;;;;;;;;1.15;100.00;96740.41;5022094;28;19928;-71
2023/03/03 03:33:15;;;;;;;;;;;;;;;1.21;100.00;96736.50;5017813;28;19917;-68
2023/03/03 03:35:44;;;;;;;;;;;;;;;1.22;100.00;96729.22;5020379;28;19924;-71
2023/03/03 03:38:10;;;;;;;;;;;;;;;1.09;100.00;96738.94;5017295;28;19978;-71
2023/03/03 03:40:35;;;;;;;;;;;;;;;1.02;100.00;96723.16;5021936;28;20004;-72
2023/03/03 03:43:01;;;;;;;;;;;;;;;0.99;100.00;96741.84;5022410;28;20304;-72
2023/03/03 03:45:26;;;;;;;;;;;;;;;1.00;100.00;96752.34;5015470;28;20404;-71
2023/03/03 03:47:51;;;;;;;;;;;;;;;1.04;100.00;96749.84;5022728;28;19924;-71
2023/03/03 03:50:17;;;;;;;;;;;;;;;1.11;100.00;96744.81;5017891;28;19917;-72
2023/03/03 03:52:42;;;;;;;;;;;;;;;1.21;100.00;96747.31;5023198;28;20298;-70
2023/03/03 03:55:08;;;;;;;;;;;;;;;1.16;100.00;96752.81;5014728;28;19921;-69
2023/03/03 03:57:33;;;;;;;;;;;;;;;1.09;100.00;96750.53;5021044;28;19964;-69
2023/03/03 03:59:58;;;;;;;;;;;;;;;1.08;100.00;96748.13;5021918;28;20016;-71
2023/03/03 04:02:24;;;;;;;;;;;;;;;1.11;100.00;96744.81;4996840;28;19996;-71
2023/03/03 04:04:49;;;;;;;;;;;;;;;1.03;100.00;96746.34;5002168;28;19925;-71
2023/03/03 04:07:14;;;;;;;;;;;;;;;1.01;100.00;96750.44;5001803;28;19917;-73
2023/03/03 04:09:39;;;;;;;;;;;;;;;1.06;100.00;96755.72;5023834;28;19917;-70
2023/03/03 04:12:05;;;;;;;;;;;;;;;1.09;100.00;96741.63;4998966;28;20537;-70
2023/03/03 04:14:31;;;;;;;;;;;;;;;1.16;100.00;96741.22;5021812;28;20023;-72
2023/03/03 04:16:56;;;;;;;;;;;;;;;1.11;100.00;96747.53;5022386;28;19925;-70
2023/03/03 04:19:22;;;;;;;;;;;;;;;1.13;100.00;96745.31;5017552;28;20325;-72
2023/03/03 04:21:48;;;;;;;;;;;;;;;1.18;100.00;96745.19;5021675;28;20016;-70
2023/03/03 04:24:13;;;;;;;;;;;;;;;1.16;100.00;96749.31;5018144;28;19925;-72
2023/03/03 04:26:38;;;;;;;;;;;;;;;1.12;100.00;96747.22;5024261;28;19952;-70
2023/03/03 04:29:04;;;;;;;;;;;;;;;1.16;100.00;96746.63;5031935;28;20434;-71
2023/03/03 04:31:29;;;;;;;;;;;;;;;1.12;100.00;96743.75;5025458;28;19917;-71
2023/03/03 04:33:54;;;;;;;;;;;;;;;1.18;100.00;96752.50;5041591;28;19917;-73
2023/03/03 04:36:20;;;;;;;;;;;;;;;1.17;100.00;96746.31;5033564;28;19918;-70
2023/03/03 04:38:45;;;;;;;;;;;;;;;1.12;100.00;96741.03;5023314;28;20449;-70
2023/03/03 04:41:11;;;;;;;;;;;;;;;0.97;100.00;96738.66;5018451;28;19971;-71
2023/03/03 04:43:36;;;;;;;;;;;;;;;0.78;100.00;96750.41;5021512;28;19979;-70
2023/03/03 04:46:01;;;;;;;;;;;;;;;0.92;100.00;96745.00;5022993;28;19999;-72
2023/03/03 04:48:27;;;;;;;;;;;;;;;1.06;100.00;96751.16;5016201;28;19932;-70
2023/03/03 04:50:53;;;;;;;;;;;;;;;1.14;100.00;96745.00;5022583;28;19927;-70
2023/03/03 04:53:18;;;;;;;;;;;;;;;1.07;100.00;96747.34;5018878;28;19917;-71
2023/03/03 04:55:43;;;;;;;;;;;;;;;0.98;100.00;96749.16;5020914;28;19923;-72
2023/03/03 04:58:09;;;;;;;;;;;;;;;0.76;100.00;96755.28;5016175;28;19917;-71
2023/03/03 05:00:35;;;;;;;;;;;;;;;0.95;100.00;96758.66;5021461;28;20378;-71
2023/03/03 05:03:00;;;;;;;;;;;;;;;1.12;100.00;96762.63;5002609;28;19922;-71
2023/03/03 05:05:26;;;;;;;;;;;;;;;1.17;100.00;96753.59;4987939;28;20079;-70
2023/03/03 05:07:53;;;;;;;;;;;;;;;1.12;100.00;96762.63;5012928;28;20413;-69
2023/03/03 05:10:18;;;;;;;;;;;;;;;1.12;100.00;96755.31;5018669;28;20286;-73
2023/03/03 05:12:44;;;;;;;;;;;;;;;1.08;100.00;96764.31;5020698;28;19971;-72
2023/03/03 05:15:09;;;;;;;;;;;;;;;1.14;100.00;96763.09;5019953;28;20417;-72
2023/03/03 05:17:35;;;;;;;;;;;;;;;1.16;100.00;96768.22;5023880;28;20012;-72
2023/03/03 05:20:00;;;;;;;;;;;;;;;1.13;100.00;96770.41;5024825;28;19917;-71
2023/03/03 05:22:26;;;;;;;;;;;;;;;1.21;100.00;96768.88;5020954;28;19921;-73
2023/03/03 05:24:52;;;;;;;;;;;;;;;1.23;100.00;96766.69;5025206;28;19921;-71
2023/03/03 05:27:18;;;;;;;;;;;;;;;1.22;100.00;96761.59;5019941;28;19917;-70
2023/03/03 05:29:43;;;;;;;;;;;;;;;1.28;100.00;96766.56;5024915;28;20004;-70
2023/03/03 05:32:08;;;;;;;;;;;;;;;1.17;100.00;96759.00;5017925;28;20430;-70
2023/03/03 05:34:33;;;;;;;;;;;;;;;1.10;100.00;96767.53;5025545;28;19917;-68
2023/03/03 05:36:59;;;;;;;;;;;;;;;1.13;100.00;96766.91;5023705;28;19932;-68
2023/03/03 05:39:24;;;;;;;;;;;;;;;1.15;100.00;96770.09;5019640;28;20392;-68
2023/03/03 05:41:49;;;;;;;;;;;;;;;1.14;100.00;96768.50;5025395;28;20022;-71
2023/03/03 05:44:15;;;;;;;;;;;;;;;1.21;100.00;96774.28;5019987;28;19936;-70
2023/03/03 05:46:41;;;;;;;;;;;;;;;1.20;100.00;96782.69;5024290;28;19975;-70
2023/03/03 05:49:07;;;;;;;;;;;;;;;1.23;100.00;96780.16;5021840;28;19928;-68
2023/03/03 05:51:32;;;;;;;;;;;;;;;1.21;100.00;96778.88;5024037;28;20271;-68
2023/03/03 05:53:58;;;;;;;;;;;;;;;1.24;100.00;96787.19;5026273;28;20008;-70
2023/03/03 05:56:23;;;;;;;;;;;;;;;1.18;100.00;96788.38;5019842;28;19923;-68
2023/03/03 05:58:49;;;;;;;;;;;;;;;1.10;100.00;96787.19;5024873;28;19971;-68
2023/03/03 06:01:14;;;;;;;;;;;;;;;1.12;100.00;96778.81;5017017;28;19991;-69
2023/03/03 06:03:39;;;;;;;;;;;;;;;1.20;100.00;96788.06;5000176;28;19930;-69
2023/03/03 06:06:05;;;;;;;;;;;;;;;1.22;100.00;96786.66;4994914;28;19924;-70
2023/03/03 06:08:31;;;;;;;;;;;;;;;1.22;100.00;96788.56;5021226;28;19932;-69
2023/03/03 06:10:57;;;;;;;;;;;;;;;1.24;100.00;96789.06;5025067;28;19925;-71
2023/03/03 06:13:22;;;;;;;;;;;;;;;1.20;100.00;96786.16;5020067;28;20835;-69
2023/03/03 06:15:47;;;;;;;;;;;;;;;1.21;100.00;96789.69;5024492;28;19925;-69
2023/03/03 06:18:12;;;;;;;;;;;;;;;1.22;100.00;96793.97;5022199;28;20047;-68
2023/03/03 06:20:38;;;;;;;;;;;;;;;1.18;100.00;96788.38;5025345;28;20412;-69
2023/03/03 06:23:03;;;;;;;;;;;;;;;1.24;100.00;96794.44;5021747;28;19987;-71
2023/03/03 06:25:29;;;;;;;;;;;;;;;1.29;100.00;96807.84;5020608;28;19946;-70
2023/03/03 06:27:54;;;;;;;;;;;;;;;1.22;100.00;96796.66;5023952;28;20442;-69
2023/03/03 06:30:19;;;;;;;;;;;;;;;1.24;100.00;96807.94;5020104;28;20008;-68
2023/03/03 06:32:45;;;;;;;;;;;;;;;1.30;100.00;96812.13;5029141;28;20290;-69
2023/03/03 06:35:11;;;;;;;;;;;;;;;1.34;100.00;96815.81;5022766;28;19924;-68
2023/03/03 06:37:36;;;;;;;;;;;;;;;1.36;100.00;96824.41;5024971;28;20345;-68
2023/03/03 06:40:03;;;;;;;;;;;;;;;1.46;100.00;96817.97;5040842;28;19917;-70
2023/03/03 06:42:28;;;;;;;;;;;;;;;1.45;100.00;96821.78;5040133;28;19921;-69
2023/03/03 06:44:54;;;;;;;;;;;;;;;1.44;100.00;96818.31;5028480;28;20031;-70
2023/03/03 06:47:19;;;;;;;;;;;;;;;1.43;100.00;96830.19;5021208;28;19921;-69
2023/03/03 06:49:44;;;;;;;;;;;;;;;1.48;100.00;96832.00;5025776;28;20306;-69
2023/03/03 06:52:28;;;;;;;;;;;;;;;1.53;100.00;96832.66;5021667;28;19968;-70
2023/03/03 06:54:57;;;;;;;;;;;;;;;1.45;100.00;96840.69;5032434;28;19917;-71
2023/03/03 06:57:27;;;;;;;;;;;;;;;1.52;100.00;96830.28;5024314;28;20483;-69
2023/03/03 06:59:54;;;;;;;;;;;;;;;1.54;100.00;96833.47;5029369;28;19917;-70
2023/03/03 07:02:20;;;;;;;;;;;;;;;1.63;100.00;96839.72;5016739;28;20421;-70
2023/03/03 07:04:46;;;;;;;;;;;;;;;1.70;100.00;96839.31;5006552;28;19925;-69
2023/03/03 07:07:23;;;;;;;;;;;;;;;1.74;100.00;96842.19;5014171;28;19917;-69
2023/03/03 07:09:53;;;;;;;;;;;;;;;1.72;100.00;96846.00;5022625;28;19925;-68
2023/03/03 07:12:21;;;;;;;;;;;;;;;1.81;100.00;96846.06;5017422;28;19971;-69
2023/03/03 07:14:50;;;;;;;;;;;;;;;1.86;100.00;96848.66;5014830;28;19928;-68
2023/03/03 07:17:17;;;;;;;;;;;;;;;1.96;100.00;96850.28;5000005;28;19925;-70
2023/03/03 07:19:43;;;;;;;;;;;;;;;1.86;100.00;96845.16;5003640;28;19940;-69
2023/03/03 07:22:12;;;;;;;;;;;;;;;1.87;100.00;96855.66;4998964;28;20341;-68
2023/03/03 07:24:37;;;;;;;;;;;;;;;2.01;100.00;96854.78;5004282;28;19921;-69
2023/03/03 07:27:06;;;;;;;;;;;;;;;1.97;100.00;96867.31;4999353;28;19917;-70
2023/03/03 07:29:33;;;;;;;;;;;;;;;2.05;100.00;96863.88;5004260;28;19925;-69
2023/03/03 07:32:00;;;;;;;;;;;;;;;2.10;100.00;96864.53;5006924;28;19918;-68
2023/03/03 07:34:36;;;;;;;;;;;;;;;2.10;100.00;96859.13;5004285;28;20020;-69
2023/03/03 07:37:08;;;;;;;;;;;;;;;2.09;100.00;96865.66;5008114;28;20278;-69
2023/03/03 07:39:35;;;;;;;;;;;;;;;2.15;100.00;96869.03;5010933;28;19924;-71
2023/03/03 07:42:18;;;;;;;;;;;;;;;2.13;100.00;96868.56;5016111;28;19964;-68
2023/03/03 07:44:45;;;;;;;;;;;;;;;2.33;100.00;96866.47;5008431;28;19993;-69
2023/03/03 07:47:22;;;;;;;;;;;;;;;2.21;100.00;96867.78;4999732;28;19924;-68
2023/03/03 07:49:48;;;;;;;;;;;;;;;2.20;100.00;96874.31;5004785;28;20361;-68
2023/03/03 07:52:16;;;;;;;;;;;;;;;2.12;100.00;96872.34;5001777;28;19989;-68
2023/03/03 07:54:44;;;;;;;;;;;;;;;2.13;100.00;96875.88;5004705;28;20068;-69
2023/03/03 07:57:15;;;;;;;;;;;;;;;2.41;100.00;96876.50;5006069;28;19918;-68
2023/03/03 08:00:01;;;;;;;;;;;;;;;2.57;100.00;96879.63;5006410;28;19917;-68
2023/03/03 08:02:26;;;;;;;;;;;;;;;2.54;100.00;96883.75;4998665;28;19925;-69
2023/03/03 08:04:53;;;;;;;;;;;;;;;2.60;100.00;96881.72;5003439;28;20444;-69
2023/03/03 08:07:20;;;;;;;;;;;;;;;2.54;100.00;96885.66;5004144;28;19917;-69
2023/03/03 08:09:50;;;;;;;;;;;;;;;2.68;100.00;96886.34;5023618;28;19983;-68
2023/03/03 08:12:22;;;;;;;;;;;;;;;2.74;100.00;96881.59;5017429;28;19921;-70
2023/03/03 08:14:50;;;;;;;;;;;;;;;2.71;100.00;96884.94;5020491;28;20004;-68
2023/03/03 08:17:20;;;;;;;;;;;;;;;2.92;100.00;96886.00;5017313;28;19917;-69
2023/03/03 08:19:46;;;;;;;;;;;;;;;3.16;100.00;96882.91;4981849;28;19922;-68
2023/03/03 08:22:16;;;;;;;;;;;;;;;3.13;100.00;96880.03;4977704;28;20290;-71
2023/03/03 08:24:41;;;;;;;;;;;;;;;2.99;100.00;96882.81;4981998;28;19922;-70
2023/03/03 08:27:07;;;;;;;;;;;;;;;2.97;100.00;96887.75;4978304;28;20283;-69
2023/03/03 08:29:32;;;;;;;;;;;;;;;2.95;100.00;96887.28;4981300;28;20371;-69
2023/03/03 08:31:57;;;;;;;;;;;;;;;3.07;100.00;96887.50;4983065;28;19928;-69
2023/03/03 08:34:23;;;;;;;;;;;;;;;3.25;100.00;96888.34;4978141;28;20472;-69
2023/03/03 08:36:48;;;;;;;;;;;;;;;3.36;100.00;96889.63;4982151;28;19922;-69
2023/03/03 08:39:14;;;;;;;;;;;;;;;3.45;100.00;96887.75;4979927;28;20403;-70
2023/03/03 08:41:42;;;;;;;;;;;;;;;3.59;100.00;96900.38;4983169;28;19963;-69
2023/03/03 08:44:07;;;;;;;;;;;;;;;3.71;100.00;96888.91;4984707;28;19977;-69
2023/03/03 08:46:33;;;;;;;;;;;;;;;3.77;100.00;96891.16;4992321;28;19918;-69
2023/03/03 08:48:58;;;;;;;;;;;;;;;3.87;99.82;96894.66;4991106;28;19922;-69
2023/03/03 08:51:25;;;;;;;;;;;;;;;3.99;98.91;96895.59;4998834;28;19922;-68
2023/03/03 08:53:50;;;;;;;;;;;;;;;4.05;97.67;96901.66;4987739;28;20005;-68
2023/03/03 08:56:15;;;;;;;;;;;;;;;4.26;95.14;96898.31;4982298;28;20331;-68
2023/03/03 08:58:46;;;;;;;;;;;;;;;4.31;95.45;96900.88;4986085;28;19982;-69
2023/03/03 09:01:12;;;;;;;;;;;;;;;4.40;94.63;96907.09;4982442;28;20407;-68
2023/03/03 09:03:38;;;;;;;;;;;;;;;4.50;93.77;96904.03;5003547;28;20016;-70
2023/03/03 09:06:03;;;;;;;;;;;;;;;4.50;93.48;96906.75;5002466;28;19918;-72
2023/03/03 09:08:28;;;;;;;;;;;;;;;4.59;92.50;96904.00;5020310;28;20366;-68
2023/03/03 09:10:54;;;;;;;;;;;;;;;4.59;91.45;96899.41;5025744;28;19917;-69
2023/03/03 09:13:19;;;;;;;;;;;;;;;4.60;92.02;96900.19;5020276;28;20316;-70
2023/03/03 09:15:45;;;;;;;;;;;;;;;4.78;91.23;96899.00;5025892;28;19925;-69
2023/03/03 09:18:15;;;;;;;;;;;;;;;4.92;90.86;96914.31;5003292;28;20504;-70
2023/03/03 09:20:40;;;;;;;;;;;;;;;5.04;89.26;96909.00;5035550;28;19917;-71
2023/03/03 09:23:24;;;;;;;;;;;;;;;5.25;91.11;96909.06;5029922;28;20023;-68
2023/03/03 09:25:50;;;;;;;;;;;;;;;4.75;89.03;96910.53;5024282;28;19924;-71
2023/03/03 09:28:27;;;;;;;;;;;;;;;4.97;89.36;96906.00;5020488;28;19921;-70
2023/03/03 09:30:53;;;;;;;;;;;;;;;4.91;89.38;96915.44;5023621;28;19963;-69
2023/03/03 09:33:21;;;;;;;;;;;;;;;4.92;89.92;96912.38;5020921;28;19940;-68
2023/03/03 09:35:48;;;;;;;;;;;;;;;5.49;87.18;96919.34;5023799;28;19971;-69
2023/03/03 09:38:21;;;;;;;;;;;;;;;5.59;83.27;96914.66;5020999;28;19921;-69
2023/03/03 09:40:53;;;;;;;;;;;;;;;5.75;83.81;96918.38;5021664;28;20064;-68
2023/03/03 09:43:26;;;;;;;;;;;;;;;6.00;81.99;96919.38;5019217;28;20452;-69
2023/03/03 09:45:54;;;;;;;;;;;;;;;5.75;83.65;96921.91;5024820;28;19917;-69
2023/03/03 09:48:38;;;;;;;;;;;;;;;5.70;84.48;96913.94;5020315;28;19917;-69
2023/03/03 09:51:11;;;;;;;;;;;;;;;5.80;83.68;96918.19;5021556;28;19962;-71
2023/03/03 09:53:52;;;;;;;;;;;;;;;5.87;82.00;96917.66;5025098;28;19917;-69
2023/03/03 09:56:27;;;;;;;;;;;;;;;5.53;83.71;96920.28;5022779;28;19925;-68
2023/03/03 09:58:59;;;;;;;;;;;;;;;5.51;84.24;96919.00;5025493;28;20416;-68
2023/03/03 10:01:27;;;;;;;;;;;;;;;5.51;84.54;96919.00;5017505;28;19928;-68
2023/03/03 10:04:11;;;;;;;;;;;;;;;5.61;84.19;96917.84;4998968;28;19930;-70
2023/03/03 10:06:37;;;;;;;;;;;;;;;5.00;85.46;96926.25;4997313;28;20354;-68
2023/03/03 10:09:11;;;;;;;;;;;;;;;5.41;84.34;96927.53;5022588;28;19949;-70
2023/03/03 10:11:36;;;;;;;;;;;;;;;5.38;85.23;96920.81;5025499;28;20007;-68
2023/03/03 10:14:20;;;;;;;;;;;;;;;4.48;91.23;96927.16;5022221;28;20028;-70
2023/03/03 10:16:52;;;;;;;;;;;;;;;4.53;92.18;96922.38;5024511;28;19917;-69
2023/03/03 10:19:37;;;;;;;;;;;;;;;4.63;91.63;96915.00;5020811;28;19917;-68
2023/03/03 10:22:23;;;;;;;;;;;;;;;4.74;91.87;96916.28;5023010;28;20442;-71
2023/03/03 10:25:01;;;;;;;;;;;;;;;4.59;92.13;96926.53;5024100;28;19958;-68
2023/03/03 10:27:41;;;;;;;;;;;;;;;4.50;93.70;96917.59;5020860;28;19957;-70
2023/03/03 10:30:06;;;;;;;;;;;;;;;4.50;94.39;96922.22;5021775;28;19929;-71
2023/03/03 10:32:39;;;;;;;;;;;;;;;4.38;93.71;96923.66;5025084;28;20007;-69
2023/03/03 10:35:17;;;;;;;;;;;;;;;4.00;97.26;96920.81;5021247;28;19971;-70
2023/03/03 10:37:50;;;;;;;;;;;;;;;4.20;97.41;96914.75;5024558;28;20004;-69
2023/03/03 10:40:27;;;;;;;;;;;;;;;4.42;95.97;96926.53;5019812;28;19921;-69
2023/03/03 10:43:07;;;;;;;;;;;;;;;4.69;95.34;96922.66;5006110;28;19952;-69
2023/03/03 10:45:41;;;;;;;;;;;;;;;4.69;94.46;96917.22;5018291;28;19974;-69
2023/03/03 10:48:10;;;;;;;;;;;;;;;4.91;93.74;96920.84;5032170;28;19980;-68
2023/03/03 10:50:46;;;;;;;;;;;;;;;4.83;92.07;96919.75;5036290;28;20337;-69
2023/03/03 10:53:24;;;;;;;;;;;;;;;5.07;92.26;96921.13;5035636;28;19924;-69
2023/03/03 10:55:52;;;;;;;;;;;;;;;5.01;92.84;96917.00;5031440;28;19918;-70
2023/03/03 10:58:23;;;;;;;;;;;;;;;5.22;91.58;96920.59;5014950;28;20236;-69
2023/03/03 11:01:08;;;;;;;;;;;;;;;5.29;91.88;96920.84;5024539;28;20374;-70
2023/03/03 11:03:52;;;;;;;;;;;;;;;5.67;88.27;96922.75;4978082;28;20449;-69
2023/03/03 11:06:18;;;;;;;;;;;;;;;5.62;89.57;96916.69;4996667;28;19940;-70
2023/03/03 11:08:43;;;;;;;;;;;;;;;6.02;86.01;96914.38;5019976;28;19917;-69
2023/03/03 11:11:16;;;;;;;;;;;;;;;6.31;85.40;96923.59;5016762;28;19921;-69
2023/03/03 11:13:41;;;;;;;;;;;;;;;6.43;83.52;96915.50;5024215;28;19917;-70
2023/03/03 11:16:18;;;;;;;;;;;;;;;6.46;82.22;96917.56;5018701;28;19940;-69
2023/03/03 11:18:49;;;;;;;;;;;;;;;6.91;81.07;96921.41;5011638;28;20299;-69
2023/03/03 11:21:21;;;;;;;;;;;;;;;6.74;79.39;96918.91;4998107;28;19959;-69
2023/03/03 11:24:02;;;;;;;;;;;;;;;6.03;82.15;96924.16;5003484;28;20382;-69
2023/03/03 11:26:47;;;;;;;;;;;;;;;6.51;81.89;96921.97;5001130;28;19941;-68
2023/03/03 11:29:30;;;;;;;;;;;;;;;6.16;83.53;96918.75;4999088;28;20008;-68
2023/03/03 11:32:00;;;;;;;;;;;;;;;6.19;83.71;96923.53;5003403;28;19964;-68
2023/03/03 11:34:26;;;;;;;;;;;;;;;6.09;85.35;96911.16;4999267;28;19917;-68
2023/03/03 11:36:54;;;;;;;;;;;;;;;6.09;84.73;96909.22;5004172;28;19932;-70
2023/03/03 11:39:22;;;;;;;;;;;;;;;5.85;85.33;96906.31;4999475;28;19917;-68
2023/03/03 11:42:23;;;;;;;;;;;;;;;5.55;88.38;96903.66;5004480;28;19956;-70
2023/03/03 11:44:55;;;;;;;;;;;;;;;5.55;87.51;96896.28;4949100;28;20007;-70
2023/03/03 11:47:23;;;;;;;;;;;;;;;5.87;86.80;96893.19;5004349;28;19917;-68
2023/03/03 11:49:55;;;;;;;;;;;;;;;5.77;87.25;96894.38;5005888;28;19917;-68
2023/03/03 11:52:41;;;;;;;;;;;;;;;5.80;86.34;96895.63;4980338;28;19968;-68
2023/03/03 11:55:27;;;;;;;;;;;;;;;5.47;87.13;96896.34;5001706;28;19924;-68
2023/03/03 11:57:59;;;;;;;;;;;;;;;5.37;87.89;96894.78;4992683;28;19917;-69
2023/03/03 12:00:24;;;;;;;;;;;;;;;5.54;86.30;96893.88;5001815;28;19921;-69
2023/03/03 12:02:56;;;;;;;;;;;;;;;5.62;86.91;96884.91;5005970;28;19994;-68
2023/03/03 12:05:28;;;;;;;;;;;;;;;5.80;86.46;96880.16;4997226;28;19921;-70
2023/03/03 12:08:05;;;;;;;;;;;;;;;5.87;86.17;96882.31;5017278;28;19917;-68
2023/03/03 12:10:41;;;;;;;;;;;;;;;6.12;84.03;96878.66;5008376;28;19921;-68
2023/03/03 12:13:18;;;;;;;;;;;;;;;5.91;84.75;96888.69;5022570;28;19952;-68
2023/03/03 12:15:52;;;;;;;;;;;;;;;6.13;83.78;96890.31;5023866;28;19963;-68
2023/03/03 12:18:36;;;;;;;;;;;;;;;6.18;83.47;96886.59;5013604;28;19945;-68
2023/03/03 12:21:13;;;;;;;;;;;;;;;5.82;84.41;96883.31;5006573;28;19917;-68
2023/03/03 12:23:57;;;;;;;;;;;;;;;5.60;87.97;96889.06;5008954;28;19921;-69
2023/03/03 12:26:36;;;;;;;;;;;;;;;5.51;86.16;96884.50;5006854;28;20286;-69
2023/03/03 12:29:11;;;;;;;;;;;;;;;5.44;86.66;96878.78;5006110;28;19925;-69
2023/03/03 12:31:43;;;;;;;;;;;;;;;5.50;88.30;96880.16;5006146;28;19924;-69
2023/03/03 12:34:13;;;;;;;;;;;;;;;5.62;87.26;96873.22;5002797;28;19924;-69
2023/03/03 12:36:57;;;;;;;;;;;;;;;5.85;85.33;96868.25;5009174;28;19918;-70
2023/03/03 12:39:28;;;;;;;;;;;;;;;5.95;84.71;96873.31;5004531;28;20475;-70
2023/03/03 12:42:02;;;;;;;;;;;;;;;6.07;84.24;96872.63;5009679;28;19921;-70
2023/03/03 12:44:40;;;;;;;;;;;;;;;5.94;84.27;96877.16;5007382;28;19998;-70
2023/03/03 12:47:05;;;;;;;;;;;;;;;6.07;83.87;96862.53;5005932;28;19924;-69
2023/03/03 12:49:43;;;;;;;;;;;;;;;6.07;83.44;96872.63;5008605;28;19922;-69
2023/03/03 12:52:17;;;;;;;;;;;;;;;6.03;83.76;96869.78;5004978;28;20393;-69
2023/03/03 12:54:54;;;;;;;;;;;;;;;5.92;85.16;96873.97;5009606;28;20339;-69
2023/03/03 12:57:26;;;;;;;;;;;;;;;6.26;82.70;96872.91;5014184;28;20418;-70
2023/03/03 13:00:00;;;;;;;;;;;;;;;6.13;83.05;96874.00;5022800;28;19917;-71